createdAt,value
2018-07-06T00:00:05.509Z,5.57
2018-07-06T00:02:52.045Z,5.43
2018-07-06T00:05:38.277Z,6.40
2018-07-06T00:08:24.649Z,6.17
2018-07-06T00:11:10.922Z,9.33
2018-07-06T00:13:57.261Z,7.97
2018-07-06T00:16:43.777Z,5.87
2018-07-06T00:19:30.105Z,6.33
2018-07-06T00:22:16.416Z,6.33
2018-07-06T00:25:02.529Z,6.40
2018-07-06T00:27:48.857Z,5.40
2018-07-06T00:30:35.363Z,4.37
2018-07-06T00:33:21.784Z,5.30
2018-07-06T00:36:07.989Z,3.80
2018-07-06T00:38:54.211Z,4.50
2018-07-06T00:41:40.789Z,5.57
2018-07-06T00:44:27.353Z,6.73
2018-07-06T00:47:13.625Z,5.50
2018-07-06T00:50:00.068Z,3.80
2018-07-06T00:52:46.470Z,4.10
2018-07-06T00:55:32.909Z,4.30
2018-07-06T00:58:23.137Z,6.17
2018-07-06T01:01:09.465Z,8.63
2018-07-06T01:03:55.553Z,4.30
2018-07-06T01:06:41.926Z,4.00
2018-07-06T01:09:28.301Z,6.20
2018-07-06T01:12:20.137Z,4.20
2018-07-06T01:15:12.021Z,5.00
2018-07-06T01:17:58.273Z,5.10
2018-07-06T01:20:44.868Z,3.30
2018-07-06T01:23:31.257Z,4.40
2018-07-06T01:26:18.072Z,5.07
2018-07-06T01:29:04.285Z,4.20
2018-07-06T01:31:50.592Z,4.93
2018-07-06T01:34:37.061Z,3.97
2018-07-06T01:37:23.597Z,3.27
2018-07-06T01:40:10.133Z,5.20
2018-07-06T01:42:56.369Z,4.40
2018-07-06T01:45:42.677Z,6.43
2018-07-06T01:48:28.996Z,5.87
2018-07-06T01:51:15.314Z,6.63
2018-07-06T01:54:01.736Z,3.77
2018-07-06T01:56:48.190Z,4.97
2018-07-06T01:59:34.737Z,4.20
2018-07-06T02:02:20.933Z,3.60
2018-07-06T02:05:07.401Z,3.60
2018-07-06T02:07:53.817Z,3.77
2018-07-06T02:10:40.096Z,4.00
2018-07-06T02:13:26.489Z,3.50
2018-07-06T02:16:12.885Z,4.07
2018-07-06T02:18:59.345Z,5.37
2018-07-06T02:21:45.616Z,5.90
2018-07-06T02:24:32.190Z,4.60
2018-07-06T02:27:18.645Z,5.23
2018-07-06T02:30:05.057Z,4.53
2018-07-06T02:32:51.513Z,5.50
2018-07-06T02:35:37.962Z,4.13
2018-07-06T02:38:24.093Z,3.83
2018-07-06T02:41:10.538Z,9.27
2018-07-06T02:43:56.852Z,5.97
2018-07-06T02:46:43.139Z,4.13
2018-07-06T02:49:29.477Z,5.87
2018-07-06T02:52:15.813Z,5.10
2018-07-06T02:55:02.324Z,4.60
2018-07-06T02:57:48.817Z,7.10
2018-07-06T03:00:35.158Z,6.77
2018-07-06T03:03:21.437Z,8.10
2018-07-06T03:06:07.688Z,5.27
2018-07-06T03:08:53.965Z,7.17
2018-07-06T03:11:40.267Z,5.90
2018-07-06T03:14:26.678Z,6.10
2018-07-06T03:17:12.854Z,5.40
2018-07-06T03:19:59.201Z,5.30
2018-07-06T03:22:45.349Z,6.13
2018-07-06T03:25:31.745Z,7.57
2018-07-06T03:28:18.014Z,5.97
2018-07-06T03:31:04.337Z,5.57
2018-07-06T03:33:50.892Z,7.60
2018-07-06T03:36:37.168Z,4.60
2018-07-06T03:39:23.429Z,7.30
2018-07-06T03:42:09.689Z,6.07
2018-07-06T03:44:56.005Z,6.93
2018-07-06T03:47:42.317Z,6.23
2018-07-06T03:50:28.677Z,5.67
2018-07-06T03:53:15.105Z,7.10
2018-07-06T03:56:01.357Z,7.73
2018-07-06T03:58:47.709Z,7.23
2018-07-06T04:01:34.194Z,6.37
2018-07-06T04:04:20.562Z,6.70
2018-07-06T04:07:06.885Z,10.53
2018-07-06T04:09:53.196Z,9.30
2018-07-06T04:12:39.488Z,9.30
2018-07-06T04:15:25.733Z,9.87
2018-07-06T04:18:12.234Z,10.00
2018-07-06T04:20:58.332Z,6.77
2018-07-06T04:23:44.805Z,9.40
2018-07-06T04:26:31.187Z,8.40
2018-07-06T04:29:17.429Z,8.13
2018-07-06T04:32:03.605Z,9.37
2018-07-06T04:34:51.073Z,8.97
2018-07-06T04:37:40.990Z,6.83
2018-07-06T04:40:27.454Z,8.90
2018-07-06T04:43:13.636Z,9.57
2018-07-06T04:46:00.037Z,11.87
2018-07-06T04:48:46.569Z,7.93
2018-07-06T04:51:32.838Z,10.57
2018-07-06T04:54:19.118Z,10.37
2018-07-06T04:57:05.437Z,10.57
2018-07-06T04:59:51.814Z,7.47
2018-07-06T05:02:38.383Z,7.80
2018-07-06T05:05:24.789Z,8.80
2018-07-06T05:08:11.174Z,8.07
2018-07-06T05:10:57.469Z,11.67
2018-07-06T05:13:44.162Z,9.50
2018-07-06T05:16:30.555Z,11.57
2018-07-06T05:19:16.945Z,9.30
2018-07-06T05:22:03.285Z,15.03
2018-07-06T05:24:49.593Z,9.33
2018-07-06T05:27:36.156Z,13.47
2018-07-06T05:30:22.573Z,10.70
2018-07-06T05:33:09.069Z,10.07
2018-07-06T05:35:55.349Z,14.03
2018-07-06T05:38:41.698Z,12.13
2018-07-06T05:41:28.161Z,10.07
2018-07-06T05:44:14.330Z,10.63
2018-07-06T05:47:00.653Z,11.73
2018-07-06T05:49:47.134Z,15.50
2018-07-06T05:52:33.478Z,15.60
2018-07-06T05:55:19.970Z,14.47
2018-07-06T05:58:06.509Z,14.73
2018-07-06T06:00:52.769Z,13.27
2018-07-06T06:03:39.048Z,12.57
2018-07-06T06:06:25.358Z,13.60
2018-07-06T06:08:59.972Z,14.67
2018-07-06T06:11:29.094Z,12.53
2018-07-06T06:13:58.209Z,13.57
2018-07-06T06:16:27.313Z,16.20
2018-07-06T06:18:56.469Z,13.47
2018-07-06T06:21:25.604Z,15.57
2018-07-06T06:23:54.728Z,16.83
2018-07-06T06:26:26.738Z,14.63
2018-07-06T06:28:55.865Z,16.57
2018-07-06T06:31:25.049Z,18.93
2018-07-06T06:33:54.382Z,15.77
2018-07-06T06:36:23.970Z,17.93
2018-07-06T06:38:53.133Z,13.97
2018-07-06T06:41:22.331Z,15.13
2018-07-06T06:43:51.677Z,14.87
2018-07-06T06:46:20.848Z,20.90
2018-07-06T06:48:50.031Z,19.93
2018-07-06T06:51:19.164Z,19.83
2018-07-06T06:53:48.369Z,20.67
2018-07-06T06:56:23.381Z,21.03
2018-07-06T06:58:52.705Z,21.30
2018-07-06T07:01:21.897Z,19.87
2018-07-06T07:03:51.117Z,18.57
2018-07-06T07:06:20.322Z,20.13
2018-07-06T07:08:49.493Z,19.10
2018-07-06T07:11:18.617Z,19.53
2018-07-06T07:13:47.864Z,21.57
2018-07-06T07:16:17.008Z,19.90
2018-07-06T07:18:46.158Z,18.80
2018-07-06T07:21:15.337Z,21.67
2018-07-06T07:23:44.532Z,17.90
2018-07-06T07:26:13.661Z,19.13
2018-07-06T07:28:42.892Z,21.83
2018-07-06T07:31:12.039Z,20.47
2018-07-06T07:33:41.197Z,23.83
2018-07-06T07:36:10.341Z,21.93
2018-07-06T07:38:39.493Z,24.17
2018-07-06T07:41:08.633Z,26.47
2018-07-06T07:43:37.750Z,30.87
2018-07-06T07:46:07.126Z,34.17
2018-07-06T07:48:36.253Z,35.70
2018-07-06T07:51:16.577Z,36.37
2018-07-06T07:54:32.599Z,32.07
2018-07-06T07:57:02.597Z,34.33
2018-07-06T07:59:33.311Z,35.73
2018-07-06T08:02:04.560Z,35.87
2018-07-06T08:04:33.724Z,35.17
2018-07-06T08:07:02.971Z,39.17
2018-07-06T08:09:33.123Z,45.70
2018-07-06T08:12:03.305Z,40.80
2018-07-06T08:14:32.538Z,45.63
2018-07-06T08:17:01.609Z,46.90
2018-07-06T08:19:30.738Z,50.77
2018-07-06T08:22:01.030Z,49.37
2018-07-06T08:24:30.148Z,47.57
2018-07-06T08:26:59.289Z,46.77
2018-07-06T08:29:28.461Z,45.63
2018-07-06T08:31:57.658Z,43.13
2018-07-06T08:34:38.164Z,47.43
2018-07-06T08:37:31.854Z,44.67
2018-07-06T08:40:01.069Z,44.30
2018-07-06T08:42:31.362Z,47.23
2018-07-06T08:45:01.045Z,43.47
2018-07-06T08:47:31.201Z,43.50
2018-07-06T08:50:01.233Z,47.80
2018-07-06T08:52:30.429Z,47.33
2018-07-06T08:54:59.702Z,48.70
2018-07-06T08:57:29.933Z,42.93
2018-07-06T09:00:02.432Z,45.47
2018-07-06T09:02:31.565Z,43.80
2018-07-06T09:05:01.308Z,45.43
2018-07-06T09:07:30.776Z,45.93
2018-07-06T09:10:09.853Z,43.90
2018-07-06T09:12:39.405Z,49.37
2018-07-06T09:15:08.834Z,43.67
2018-07-06T09:17:37.985Z,44.77
2018-07-06T09:20:07.248Z,45.83
2018-07-06T09:22:36.281Z,47.83
2018-07-06T09:25:06.449Z,52.10
2018-07-06T09:27:35.611Z,44.90
2018-07-06T09:30:04.801Z,50.03
2018-07-06T09:32:33.933Z,44.60
2018-07-06T09:35:03.113Z,45.53
2018-07-06T09:37:39.790Z,43.77
2018-07-06T09:40:09.465Z,44.70
2018-07-06T09:42:38.593Z,45.47
2018-07-06T09:45:07.753Z,49.30
2018-07-06T09:47:36.882Z,47.07
2018-07-06T09:50:06.080Z,45.17
2018-07-06T09:52:35.208Z,45.67
2018-07-06T09:55:04.397Z,38.83
2018-07-06T09:57:33.501Z,40.10
2018-07-06T10:00:02.718Z,44.90
2018-07-06T10:02:31.839Z,40.73
2018-07-06T10:05:01.046Z,48.00
2018-07-06T10:07:31.335Z,40.43
2018-07-06T10:10:00.453Z,40.20
2018-07-06T10:12:29.587Z,37.03
2018-07-06T10:14:58.697Z,35.30
2018-07-06T10:17:27.813Z,38.20
2018-07-06T10:19:56.934Z,37.40
2018-07-06T10:22:26.026Z,41.40
2018-07-06T10:24:55.149Z,37.50
2018-07-06T10:27:32.054Z,36.23
2018-07-06T10:30:06.673Z,39.13
2018-07-06T10:32:35.782Z,34.43
2018-07-06T10:35:05.040Z,36.73
2018-07-06T10:37:34.155Z,36.07
2018-07-06T10:40:03.456Z,34.53
2018-07-06T10:42:32.465Z,33.33
2018-07-06T10:45:01.585Z,37.27
2018-07-06T10:47:30.753Z,36.43
2018-07-06T10:49:59.875Z,36.57
2018-07-06T10:52:29.022Z,34.73
2018-07-06T10:54:58.189Z,32.70
2018-07-06T10:57:27.349Z,33.80
2018-07-06T10:59:56.509Z,34.93
2018-07-06T11:02:25.652Z,32.13
2018-07-06T11:04:54.883Z,32.00
2018-07-06T11:07:23.941Z,30.40
2018-07-06T11:09:53.088Z,30.50
2018-07-06T11:12:22.218Z,31.40
2018-07-06T11:14:51.337Z,29.80
2018-07-06T11:17:20.558Z,28.90
2018-07-06T11:19:50.496Z,25.63
2018-07-06T11:22:19.662Z,29.33
2018-07-06T11:24:48.865Z,28.90
2018-07-06T11:27:17.962Z,26.47
2018-07-06T11:29:47.092Z,26.73
2018-07-06T11:32:16.235Z,25.30
2018-07-06T11:34:45.341Z,26.57
2018-07-06T11:37:14.501Z,22.50
2018-07-06T11:39:43.629Z,21.40
2018-07-06T11:42:12.742Z,23.57
2018-07-06T11:44:41.901Z,22.93
2018-07-06T11:47:12.122Z,23.47
2018-07-06T11:49:41.249Z,19.67
2018-07-06T11:52:10.409Z,20.83
2018-07-06T11:54:39.513Z,21.57
2018-07-06T11:57:08.733Z,19.20
2018-07-06T11:59:37.833Z,23.10
2018-07-06T12:02:06.964Z,21.97
2018-07-06T12:04:36.208Z,22.93
2018-07-06T12:07:05.214Z,23.30
2018-07-06T12:09:34.332Z,21.93
2018-07-06T12:12:03.461Z,23.83
2018-07-06T12:14:32.561Z,20.47
2018-07-06T12:17:01.702Z,24.77
2018-07-06T12:19:30.802Z,18.93
2018-07-06T12:22:03.451Z,19.80
2018-07-06T12:24:32.621Z,19.67
2018-07-06T12:27:02.299Z,22.57
2018-07-06T12:29:31.390Z,20.47
2018-07-06T12:32:00.493Z,20.23
2018-07-06T12:34:31.737Z,23.40
2018-07-06T12:37:00.873Z,21.00
2018-07-06T12:39:29.953Z,19.53
2018-07-06T12:41:59.059Z,21.17
2018-07-06T12:44:28.219Z,21.03
2018-07-06T12:46:57.359Z,19.60
2018-07-06T12:49:26.489Z,18.33
2018-07-06T12:51:55.605Z,18.57
2018-07-06T12:54:25.039Z,20.77
2018-07-06T12:56:54.261Z,19.53
2018-07-06T12:59:23.461Z,20.20
2018-07-06T13:01:52.697Z,18.20
2018-07-06T13:04:21.893Z,22.10
2018-07-06T13:06:51.057Z,21.27
2018-07-06T13:09:20.297Z,19.13
2018-07-06T13:11:49.490Z,22.53
2018-07-06T13:14:18.785Z,20.80
2018-07-06T13:16:48.011Z,21.10
2018-07-06T13:19:18.122Z,22.07
2018-07-06T13:21:47.805Z,23.63
2018-07-06T13:24:17.026Z,21.53
2018-07-06T13:26:51.352Z,20.87
2018-07-06T13:29:20.607Z,21.33
2018-07-06T13:31:49.834Z,19.57
2018-07-06T13:34:19.143Z,17.27
2018-07-06T13:36:48.303Z,19.10
2018-07-06T13:39:17.458Z,21.00
2018-07-06T13:41:46.613Z,16.80
2018-07-06T13:44:16.899Z,20.13
2018-07-06T13:46:46.058Z,13.67
2018-07-06T13:49:15.197Z,16.10
2018-07-06T13:51:44.330Z,20.20
2018-07-06T13:54:13.481Z,16.70
2018-07-06T13:56:42.618Z,13.33
2018-07-06T13:59:12.221Z,17.60
2018-07-06T14:01:51.869Z,15.27
2018-07-06T14:04:21.022Z,14.67
2018-07-06T14:06:50.249Z,12.60
2018-07-06T14:09:19.491Z,11.67
2018-07-06T14:11:48.679Z,13.37
2018-07-06T14:14:17.813Z,14.03
2018-07-06T14:16:46.926Z,12.33
2018-07-06T14:19:16.057Z,14.77
2018-07-06T14:21:45.217Z,10.93
2018-07-06T14:24:14.461Z,15.33
2018-07-06T14:26:43.571Z,12.57
2018-07-06T14:29:12.746Z,10.67
2018-07-06T14:31:41.845Z,15.10
2018-07-06T14:34:11.025Z,12.07
2018-07-06T14:36:40.157Z,15.23
2018-07-06T14:39:09.549Z,12.43
2018-07-06T14:41:38.900Z,13.73
2018-07-06T14:44:08.245Z,10.63
2018-07-06T14:46:37.493Z,11.67
2018-07-06T14:49:06.657Z,10.07
2018-07-06T14:51:35.910Z,9.83
2018-07-06T14:54:05.061Z,11.20
2018-07-06T14:56:34.189Z,11.57
2018-07-06T14:59:03.413Z,10.80
2018-07-06T15:01:32.565Z,12.00
2018-07-06T15:04:02.037Z,9.90
2018-07-06T15:06:31.316Z,9.63
2018-07-06T15:09:00.493Z,10.00
2018-07-06T15:11:29.649Z,9.77
2018-07-06T15:13:58.768Z,9.57
2018-07-06T15:16:27.905Z,9.87
2018-07-06T15:18:57.037Z,10.83
2018-07-06T15:21:26.161Z,14.27
2018-07-06T15:23:55.285Z,10.87
2018-07-06T15:26:24.406Z,8.07
2018-07-06T15:28:53.737Z,12.00
2018-07-06T15:31:22.952Z,9.00
2018-07-06T15:33:52.086Z,9.53
2018-07-06T15:36:21.302Z,10.67
2018-07-06T15:38:50.567Z,14.47
2018-07-06T15:41:21.030Z,10.30
2018-07-06T15:43:51.005Z,9.10
2018-07-06T15:46:20.398Z,9.27
2018-07-06T15:48:49.506Z,11.00
2018-07-06T15:51:18.654Z,9.17
2018-07-06T15:53:47.769Z,9.47
2018-07-06T15:56:16.918Z,10.77
2018-07-06T15:58:46.041Z,12.27
2018-07-06T16:01:15.205Z,9.03
2018-07-06T16:03:44.301Z,14.17
2018-07-06T16:06:13.438Z,11.10
2018-07-06T16:08:43.679Z,9.87
2018-07-06T16:11:12.795Z,10.07
2018-07-06T16:13:41.890Z,9.70
2018-07-06T16:16:10.978Z,10.70
2018-07-06T16:18:40.077Z,10.23
2018-07-06T16:21:09.189Z,11.83
2018-07-06T16:23:38.373Z,12.03
2018-07-06T16:26:07.489Z,9.53
2018-07-06T16:28:36.605Z,9.43
2018-07-06T16:31:05.810Z,9.90
2018-07-06T16:33:34.910Z,8.57
2018-07-06T16:36:04.042Z,10.00
2018-07-06T16:38:33.200Z,7.77
2018-07-06T16:41:02.472Z,9.80
2018-07-06T16:43:31.593Z,11.57
2018-07-06T16:46:00.838Z,13.70
2018-07-06T16:48:29.921Z,10.57
2018-07-06T16:50:59.526Z,10.17
2018-07-06T16:53:28.653Z,8.63
2018-07-06T16:55:57.785Z,8.53
2018-07-06T16:58:26.908Z,9.70
2018-07-06T17:00:56.043Z,9.77
2018-07-06T17:03:25.145Z,9.17
2018-07-06T17:05:54.293Z,11.17
2018-07-06T17:08:23.410Z,7.77
2018-07-06T17:10:53.058Z,7.80
2018-07-06T17:13:23.245Z,7.80
2018-07-06T17:15:52.481Z,9.60
2018-07-06T17:18:22.078Z,8.23
2018-07-06T17:20:51.252Z,11.47
2018-07-06T17:23:20.454Z,9.63
2018-07-06T17:25:49.748Z,10.27
2018-07-06T17:28:18.969Z,9.03
2018-07-06T17:30:48.101Z,9.73
2018-07-06T17:33:17.186Z,9.37
2018-07-06T17:35:46.313Z,13.83
2018-07-06T17:38:15.427Z,9.17
2018-07-06T17:40:44.609Z,9.27
2018-07-06T17:43:13.682Z,12.27
2018-07-06T17:45:42.807Z,9.60
2018-07-06T17:48:11.938Z,8.00
2018-07-06T17:50:41.013Z,10.90
2018-07-06T17:53:10.137Z,11.53
2018-07-06T17:55:39.253Z,8.47
2018-07-06T17:58:08.345Z,11.37
2018-07-06T18:00:37.570Z,9.33
2018-07-06T18:03:06.641Z,7.80
2018-07-06T18:05:35.849Z,9.63
2018-07-06T18:08:05.050Z,8.20
2018-07-06T18:10:34.149Z,9.00
2018-07-06T18:13:03.269Z,8.70
2018-07-06T18:15:32.425Z,11.87
2018-07-06T18:18:01.533Z,7.27
2018-07-06T18:20:30.790Z,7.20
2018-07-06T18:23:00.015Z,8.53
2018-07-06T18:25:29.105Z,8.97
2018-07-06T18:27:58.181Z,9.97
2018-07-06T18:30:27.336Z,9.03
2018-07-06T18:32:56.417Z,6.97
2018-07-06T18:35:25.573Z,10.43
2018-07-06T18:37:54.677Z,8.23
2018-07-06T18:40:23.858Z,7.43
2018-07-06T18:42:52.961Z,10.23
2018-07-06T18:45:22.068Z,7.37
2018-07-06T18:47:51.447Z,9.30
2018-07-06T18:50:20.629Z,7.70
2018-07-06T18:52:49.808Z,8.97
2018-07-06T18:55:18.977Z,7.43
2018-07-06T18:57:48.097Z,6.50
2018-07-06T19:00:17.196Z,7.83
2018-07-06T19:02:46.314Z,7.33
2018-07-06T19:05:15.405Z,7.87
2018-07-06T19:07:44.519Z,6.17
2018-07-06T19:10:13.637Z,5.80
2018-07-06T19:12:42.845Z,5.80
2018-07-06T19:15:12.070Z,7.53
2018-07-06T19:17:41.185Z,7.70
2018-07-06T19:20:10.517Z,7.57
2018-07-06T19:22:39.670Z,6.40
2018-07-06T19:25:09.017Z,6.80
2018-07-06T19:27:38.446Z,6.87
2018-07-06T19:30:07.830Z,6.83
2018-07-06T19:32:36.957Z,5.83
2018-07-06T19:35:06.068Z,8.57
2018-07-06T19:37:35.177Z,5.40
2018-07-06T19:40:04.297Z,6.53
2018-07-06T19:42:33.417Z,5.27
2018-07-06T19:45:02.528Z,11.00
2018-07-06T19:47:36.991Z,7.00
2018-07-06T19:50:06.086Z,7.40
2018-07-06T19:52:35.337Z,9.57
2018-07-06T19:55:04.467Z,8.60
2018-07-06T19:57:33.612Z,7.63
2018-07-06T20:00:02.671Z,9.23
2018-07-06T20:02:31.757Z,7.53
2018-07-06T20:05:00.865Z,8.23
2018-07-06T20:07:29.973Z,5.63
2018-07-06T20:09:59.083Z,6.30
2018-07-06T20:12:28.225Z,7.23
2018-07-06T20:14:57.333Z,9.00
2018-07-06T20:17:26.437Z,9.50
2018-07-06T20:19:55.527Z,7.90
2018-07-06T20:22:24.613Z,10.57
2018-07-06T20:24:53.950Z,7.87
2018-07-06T20:27:23.053Z,9.43
2018-07-06T20:29:52.133Z,10.27
2018-07-06T20:32:21.278Z,8.87
2018-07-06T20:34:50.411Z,8.50
2018-07-06T20:37:19.548Z,11.27
2018-07-06T20:39:49.418Z,8.53
2018-07-06T20:42:18.529Z,9.83
2018-07-06T20:44:47.635Z,9.47
2018-07-06T20:47:16.701Z,12.40
2018-07-06T20:49:45.865Z,8.13
2018-07-06T20:52:14.965Z,8.20
2018-07-06T20:54:44.393Z,10.07
2018-07-06T20:57:13.493Z,9.97
2018-07-06T20:59:42.741Z,9.80
2018-07-06T21:02:13.293Z,8.93
2018-07-06T21:04:42.579Z,7.33
2018-07-06T21:07:11.879Z,8.00
2018-07-06T21:09:41.047Z,8.70
2018-07-06T21:12:10.180Z,6.63
2018-07-06T21:14:39.269Z,7.30
2018-07-06T21:17:08.409Z,7.00
2018-07-06T21:19:37.523Z,9.53
2018-07-06T21:22:07.557Z,6.47
2018-07-06T21:24:36.997Z,11.97
2018-07-06T21:27:06.105Z,8.57
2018-07-06T21:29:35.225Z,9.57
2018-07-06T21:32:04.342Z,9.17
2018-07-06T21:34:33.469Z,12.07
2018-07-06T21:37:02.597Z,8.37
2018-07-06T21:39:31.705Z,9.40
2018-07-06T21:42:00.817Z,8.17
2018-07-06T21:44:29.909Z,10.87
2018-07-06T21:46:59.024Z,10.00
2018-07-06T21:49:28.153Z,9.80
2018-07-06T21:51:57.253Z,9.63
2018-07-06T21:54:26.329Z,9.57
2018-07-06T21:56:55.436Z,7.93
2018-07-06T21:59:24.533Z,8.10
2018-07-06T22:01:53.672Z,10.73
2018-07-06T22:04:22.757Z,11.47
2018-07-06T22:06:51.877Z,10.43
2018-07-06T22:09:20.974Z,9.30
2018-07-06T22:11:50.145Z,8.73
2018-07-06T22:14:19.253Z,9.57
2018-07-06T22:16:48.337Z,8.70
2018-07-06T22:19:17.453Z,14.37
2018-07-06T22:21:46.566Z,11.13
2018-07-06T22:24:15.667Z,9.30
2018-07-06T22:26:44.742Z,10.73
2018-07-06T22:29:13.983Z,8.67
2018-07-06T22:31:48.611Z,10.07
2018-07-06T22:34:17.700Z,9.30
2018-07-06T22:36:48.146Z,10.47
2018-07-06T22:39:17.245Z,9.53
2018-07-06T22:41:46.402Z,10.50
2018-07-06T22:44:15.928Z,10.43
2018-07-06T22:46:45.019Z,11.67
2018-07-06T22:49:14.121Z,8.13
2018-07-06T22:51:43.224Z,11.63
2018-07-06T22:54:12.312Z,10.00
2018-07-06T22:56:41.401Z,9.47
2018-07-06T22:59:10.485Z,10.30
2018-07-06T23:01:39.596Z,8.83
2018-07-06T23:04:08.713Z,8.20
2018-07-06T23:06:37.799Z,9.83
2018-07-06T23:09:07.166Z,8.33
2018-07-06T23:11:36.313Z,8.20
2018-07-06T23:14:05.417Z,6.77
2018-07-06T23:16:34.513Z,10.57
2018-07-06T23:19:03.618Z,10.87
2018-07-06T23:21:32.693Z,9.27
2018-07-06T23:24:01.809Z,10.67
2018-07-06T23:26:30.923Z,9.87
2018-07-06T23:29:00.062Z,8.97
2018-07-06T23:31:29.153Z,9.20
2018-07-06T23:33:58.325Z,8.33
2018-07-06T23:36:27.431Z,10.43
2018-07-06T23:38:56.553Z,9.10
2018-07-06T23:41:25.628Z,11.37
2018-07-06T23:43:54.714Z,8.33
2018-07-06T23:46:23.810Z,9.83
2018-07-06T23:48:52.925Z,10.67
2018-07-06T23:51:22.009Z,8.83
2018-07-06T23:53:51.102Z,6.97
2018-07-06T23:56:20.205Z,12.33
2018-07-06T23:58:49.313Z,12.00
